Time;durP1;ratioP1;P1;durP2;ratioP2;P2;SDS_P1;SDS_P2;PMS_P1;PMS_P2;Temp;Humidity;BMP_temperature;BMP_pressure;BME280_temperature;BME280_humidity;BME280_pressure;Samples;Min_cycle;Max_cycle;Signal;HPM_P1;HPM_P2
2022/05/06 00:01:32;;;;;;;;;;;;;;;;;;;;;
2022/05/06 00:05:17;;;;;;;;;;;;;;;;;;;;;
2022/05/06 00:16:16;;;;;;;;;;;;;;;;;;;;;
2022/05/06 00:19:22;;;;;;;7.55;3.92;;;12.30;99.90;;;;;;6031494;23;20031;-84
2022/05/06 00:25:52;;;;;;;8.00;3.90;;;12.20;99.90;;;;;;5984294;23;20018;-83
2022/05/06 00:29:19;;;;;;;;;;;;;;;;;;;;;
2022/05/06 00:32:43;;;;;;;9.25;4.88;;;12.20;99.90;;;;;;6095664;23;20117;-83
2022/05/06 00:35:32;;;;;;;10.48;4.70;;;12.20;99.90;;;;;;6014618;23;20018;-84
2022/05/06 00:44:36;;;;;;;8.07;4.45;;;12.20;99.90;;;;;;6097705;23;20025;-84
2022/05/06 00:54:38;;;;;;;12.10;4.90;;;12.10;99.90;;;;;;6095614;23;20002;-84
2022/05/06 00:57:30;;;;;;;8.80;4.53;;;12.10;99.90;;;;;;6033274;23;20026;-84
2022/05/06 01:00:55;;;;;;;10.25;5.28;;;11.90;99.90;;;;;;6073303;23;20021;-84
2022/05/06 01:03:44;;;;;;;11.60;5.32;;;12.00;99.90;;;;;;6074249;23;20006;-84
2022/05/06 01:10:27;;;;;;;;;;;;;;;;;;;;;
2022/05/06 01:21:02;;;;;;;9.10;4.20;;;12.00;99.90;;;;;;5978870;24;20020;-83
2022/05/06 01:24:22;;;;;;;;;;;;;;;;;;;;;
2022/05/06 01:27:55;;;;;;;9.32;4.53;;;12.00;99.90;;;;;;5940673;23;20077;-83
2022/05/06 01:30:53;;;;;;;;;;;;;;;;;;;;;
2022/05/06 01:34:25;;;;;;;9.40;4.78;;;12.00;99.90;;;;;;6014562;23;20248;-84
2022/05/06 01:44:42;;;;;;;9.38;5.50;;;11.90;99.90;;;;;;6003716;23;20022;-85
2022/05/06 01:48:20;;;;;;;10.88;5.13;;;12.00;99.90;;;;;;6053195;23;20518;-84
2022/05/06 01:51:44;;;;;;;12.93;4.70;;;12.00;99.90;;;;;;5984558;24;20515;-85
2022/05/06 01:54:44;;;;;;;10.48;4.82;;;11.90;99.90;;;;;;6016379;23;20194;-84
2022/05/06 02:08:47;;;;;;;10.50;4.95;;;11.90;99.90;;;;;;6115229;23;20013;-85
2022/05/06 02:12:17;;;;;;;7.60;3.72;;;11.90;99.90;;;;;;5985620;23;20019;-85
2022/05/06 02:19:01;;;;;;;8.35;4.25;;;11.90;99.90;;;;;;6085802;23;20609;-84
2022/05/06 02:35:59;;;;;;;10.23;5.15;;;11.90;99.90;;;;;;6097682;23;20562;-84
2022/05/06 02:40:51;;;;;;;11.30;4.70;;;11.80;99.90;;;;;;6240392;23;20028;-88
2022/05/06 02:43:17;;;;;;;11.57;4.80;;;11.90;99.90;;;;;;6244827;23;20004;-86
2022/05/06 02:45:44;;;;;;;8.02;4.45;;;11.80;99.90;;;;;;6218538;23;20035;-86
2022/05/06 02:48:10;;;;;;;9.93;4.63;;;11.80;99.90;;;;;;6244425;23;20012;-87
2022/05/06 02:50:36;;;;;;;8.57;4.65;;;11.90;99.90;;;;;;6217120;23;20066;-87
2022/05/06 02:53:03;;;;;;;10.45;4.88;;;11.90;99.90;;;;;;6239548;23;20005;-86
2022/05/06 02:55:31;;;;;;;8.80;4.63;;;11.80;99.90;;;;;;6218183;23;20603;-86
2022/05/06 02:57:56;;;;;;;10.85;4.55;;;11.90;99.90;;;;;;6217384;23;20055;-86
2022/05/06 03:00:22;;;;;;;10.05;5.03;;;11.80;99.90;;;;;;6244285;23;20052;-86
2022/05/06 03:02:48;;;;;;;8.90;4.63;;;11.80;99.90;;;;;;6212677;23;20442;-87
2022/05/06 03:05:13;;;;;;;10.15;4.97;;;11.80;99.90;;;;;;6217986;23;20447;-87
2022/05/06 03:07:41;;;;;;;8.02;4.32;;;11.80;99.90;;;;;;6217025;23;20008;-87
2022/05/06 03:10:07;;;;;;;9.32;4.38;;;11.80;99.90;;;;;;6217089;23;20023;-86
2022/05/06 03:12:34;;;;;;;9.88;4.40;;;11.80;99.90;;;;;;6244596;23;20079;-87
2022/05/06 03:15:03;;;;;;;11.82;4.95;;;11.80;99.90;;;;;;6244965;23;20370;-86
2022/05/06 03:17:29;;;;;;;9.32;4.57;;;11.80;99.90;;;;;;6244924;23;20000;-87
2022/05/06 03:19:55;;;;;;;9.68;4.97;;;11.80;99.90;;;;;;6245311;23;19996;-86
2022/05/06 03:22:21;;;;;;;9.13;4.78;;;11.80;99.90;;;;;;6218523;23;20010;-86
2022/05/06 03:24:47;;;;;;;9.25;4.45;;;11.80;99.90;;;;;;6218097;23;20089;-87
2022/05/06 03:27:59;;;;;;;11.80;4.93;;;11.60;99.90;;;;;;6243115;23;20000;-86
2022/05/06 03:29:58;;;;;;;8.18;4.38;;;11.80;99.90;;;;;;6243637;23;20015;-87
2022/05/06 03:32:24;;;;;;;9.70;4.90;;;11.60;99.90;;;;;;6219355;23;20008;-88
2022/05/06 03:34:50;;;;;;;9.73;4.57;;;11.70;99.90;;;;;;6265357;22;19988;-85
2022/05/06 03:37:16;;;;;;;8.88;4.63;;;11.70;99.90;;;;;;6242398;23;20004;-86
2022/05/06 03:39:42;;;;;;;9.55;5.13;;;11.70;99.90;;;;;;6268795;23;20036;-86
2022/05/06 03:42:07;;;;;;;11.82;4.85;;;11.80;99.90;;;;;;6242427;23;19992;-85
2022/05/06 03:44:33;;;;;;;9.52;4.65;;;11.70;99.90;;;;;;6268394;23;20015;-85
2022/05/06 03:46:59;;;;;;;10.70;4.97;;;11.70;99.90;;;;;;6236598;23;20488;-86
2022/05/06 03:49:24;;;;;;;11.23;4.82;;;11.70;99.90;;;;;;6218021;23;20008;-86
2022/05/06 03:51:50;;;;;;;9.13;4.85;;;11.70;99.90;;;;;;6244888;23;20004;-86
2022/05/06 03:54:16;;;;;;;9.32;4.75;;;11.60;99.90;;;;;;6243734;23;20377;-85
2022/05/06 03:56:42;;;;;;;10.40;4.97;;;11.60;99.90;;;;;;6216853;23;20098;-87
2022/05/06 03:59:08;;;;;;;11.43;4.43;;;11.60;99.90;;;;;;6244505;23;20011;-86
2022/05/06 04:01:33;;;;;;;8.50;4.15;;;11.70;99.90;;;;;;6216693;23;20055;-87
2022/05/06 04:03:59;;;;;;;10.80;4.32;;;11.70;99.90;;;;;;6244221;23;20267;-87
2022/05/06 04:06:26;;;;;;;10.43;4.57;;;11.60;99.90;;;;;;6244251;23;20052;-86
2022/05/06 04:08:51;;;;;;;8.75;4.15;;;11.60;99.90;;;;;;6217486;23;20016;-87
2022/05/06 04:11:19;;;;;;;10.20;4.78;;;11.60;99.90;;;;;;6217912;23;20012;-86
2022/05/06 04:13:45;;;;;;;11.80;4.80;;;11.60;99.90;;;;;;6217117;23;20019;-86
2022/05/06 04:16:10;;;;;;;10.05;3.90;;;11.60;99.90;;;;;;6243317;23;20004;-86
2022/05/06 04:18:36;;;;;;;12.70;4.47;;;11.60;99.90;;;;;;6216333;23;20034;-86
2022/05/06 04:23:45;;;;;;;9.73;4.45;;;11.60;99.90;;;;;;6242350;23;20011;-87
2022/05/06 04:26:11;;;;;;;9.20;4.15;;;11.60;99.90;;;;;;6242238;23;20000;-87
2022/05/06 04:28:37;;;;;;;8.63;4.57;;;11.50;99.90;;;;;;6241574;23;19997;-87
2022/05/06 04:31:03;;;;;;;8.55;4.82;;;11.60;99.90;;;;;;6219946;23;20354;-87
2022/05/06 04:33:29;;;;;;;7.93;4.25;;;11.50;99.90;;;;;;6245851;23;20050;-87
2022/05/06 04:35:56;;;;;;;7.38;4.18;;;11.50;99.90;;;;;;6216092;23;20379;-86
2022/05/06 04:38:23;;;;;;;9.65;4.78;;;11.50;99.90;;;;;;6216913;23;20381;-86
2022/05/06 04:40:49;;;;;;;9.27;4.88;;;11.50;99.90;;;;;;6216523;23;20039;-87
2022/05/06 04:43:18;;;;;;;10.45;4.80;;;11.70;99.90;;;;;;6216458;23;20007;-87
2022/05/06 04:45:44;;;;;;;11.73;4.82;;;11.50;99.90;;;;;;6243749;23;20007;-87
2022/05/06 04:48:11;;;;;;;9.02;4.95;;;11.60;99.90;;;;;;6243147;23;20008;-86
2022/05/06 04:50:37;;;;;;;10.98;4.75;;;11.60;99.90;;;;;;6216793;23;20098;-87
2022/05/06 04:53:07;;;;;;;10.48;4.45;;;11.60;99.90;;;;;;6216424;23;20015;-86
2022/05/06 04:55:36;;;;;;;10.27;4.68;;;11.60;99.90;;;;;;6216825;23;20391;-86
2022/05/06 04:58:03;;;;;;;8.93;4.40;;;11.60;99.90;;;;;;6219232;23;20008;-86
2022/05/06 05:00:29;;;;;;;10.32;4.70;;;11.60;99.90;;;;;;6248252;23;20174;-86
2022/05/06 05:02:55;;;;;;;10.73;5.18;;;11.50;99.90;;;;;;6223248;23;20008;-87
2022/05/06 05:05:22;;;;;;;9.85;5.45;;;11.60;99.90;;;;;;6248241;23;20529;-87
2022/05/06 05:07:48;;;;;;;10.70;4.78;;;11.60;99.90;;;;;;6242382;23;20021;-86
2022/05/06 05:10:14;;;;;;;9.82;4.57;;;11.60;99.90;;;;;;6216124;23;20004;-87
2022/05/06 05:12:40;;;;;;;10.48;5.43;;;11.60;99.90;;;;;;6217226;23;20000;-85
2022/05/06 05:15:06;;;;;;;8.02;3.95;;;11.60;99.90;;;;;;6217125;23;20000;-86
2022/05/06 05:17:32;;;;;;;10.30;5.63;;;11.60;99.90;;;;;;6243298;23;20438;-88
2022/05/06 05:19:58;;;;;;;8.45;4.32;;;11.60;99.90;;;;;;6217343;23;20004;-86
2022/05/06 05:22:23;;;;;;;8.10;4.40;;;11.60;99.90;;;;;;6244135;23;20490;-87
2022/05/06 05:24:49;;;;;;;8.88;4.78;;;11.60;99.90;;;;;;6213289;23;20004;-87
2022/05/06 05:27:15;;;;;;;10.98;5.35;;;11.60;99.90;;;;;;6217134;23;20010;-87
2022/05/06 05:29:42;;;;;;;8.80;5.05;;;11.60;99.90;;;;;;6244618;23;20031;-88
2022/05/06 05:32:09;;;;;;;9.88;5.30;;;11.60;99.90;;;;;;6217013;23;20019;-87
2022/05/06 05:34:35;;;;;;;9.25;4.57;;;11.60;99.90;;;;;;6218262;23;20004;-87
2022/05/06 05:37:01;;;;;;;9.05;4.45;;;11.60;99.90;;;;;;6217563;23;20032;-87
2022/05/06 05:39:27;;;;;;;8.55;4.43;;;11.70;99.90;;;;;;6244825;23;20351;-86
2022/05/06 05:41:52;;;;;;;9.50;4.55;;;11.70;99.90;;;;;;6218824;23;20004;-87
2022/05/06 05:49:48;;;;;;;7.88;4.57;;;11.60;99.90;;;;;;6245802;23;20082;-86
2022/05/06 05:52:14;;;;;;;12.30;4.80;;;11.60;99.90;;;;;;6245801;23;20433;-87
2022/05/06 05:54:40;;;;;;;9.27;4.63;;;11.60;99.90;;;;;;6218794;23;20083;-86
2022/05/06 05:57:06;;;;;;;10.32;4.95;;;11.50;99.90;;;;;;6245150;23;20438;-87
2022/05/06 05:59:33;;;;;;;10.00;4.65;;;11.50;99.90;;;;;;6218057;23;20054;-89
2022/05/06 06:02:03;;;;;;;9.40;4.25;;;11.50;99.90;;;;;;6217808;23;20391;-86
2022/05/06 06:04:29;;;;;;;9.13;4.38;;;11.40;99.90;;;;;;6218448;23;20023;-87
2022/05/06 06:06:54;;;;;;;9.00;4.43;;;11.50;99.90;;;;;;6218382;23;20004;-86
2022/05/06 06:09:22;;;;;;;10.32;4.28;;;11.40;99.90;;;;;;6217654;23;20008;-86
2022/05/06 06:11:49;;;;;;;9.88;4.32;;;11.50;99.90;;;;;;6217786;23;20011;-86
2022/05/06 06:14:16;;;;;;;8.65;4.10;;;11.50;99.90;;;;;;6217767;23;20004;-87
2022/05/06 06:16:42;;;;;;;7.35;4.57;;;11.50;99.90;;;;;;6245342;23;20000;-86
2022/05/06 06:19:07;;;;;;;8.00;4.18;;;11.60;99.90;;;;;;6218299;23;20094;-86
2022/05/06 06:21:33;;;;;;;9.10;4.53;;;11.60;99.90;;;;;;6219921;23;20019;-85
2022/05/06 06:23:59;;;;;;;8.50;4.40;;;11.60;99.90;;;;;;6218095;23;20004;-86
2022/05/06 06:26:25;;;;;;;9.15;4.15;;;11.50;99.90;;;;;;6245036;23;20285;-86
2022/05/06 06:28:50;;;;;;;8.30;4.05;;;11.60;99.90;;;;;;6214438;23;20026;-85
2022/05/06 06:31:16;;;;;;;10.05;4.20;;;11.60;99.90;;;;;;6267718;23;19996;-85
2022/05/06 06:33:42;;;;;;;8.88;4.75;;;11.60;99.90;;;;;;6222905;23;20023;-86
2022/05/06 06:36:08;;;;;;;10.10;4.53;;;11.50;99.90;;;;;;6216439;23;20062;-86
2022/05/06 06:38:34;;;;;;;7.57;3.95;;;11.50;99.90;;;;;;6216960;23;20219;-87
2022/05/06 06:41:00;;;;;;;9.00;4.40;;;11.50;99.90;;;;;;6244934;23;20004;-87
2022/05/06 06:43:26;;;;;;;10.35;3.72;;;11.60;99.90;;;;;;6247815;23;20007;-87
2022/05/06 06:45:52;;;;;;;10.80;4.28;;;11.50;99.90;;;;;;6219138;23;20000;-86
2022/05/06 06:48:18;;;;;;;8.52;4.13;;;11.50;99.90;;;;;;6218355;23;19996;-86
2022/05/06 06:50:43;;;;;;;6.93;3.80;;;11.60;99.90;;;;;;6247531;23;20007;-87
2022/05/06 06:53:09;;;;;;;8.07;3.83;;;11.60;99.90;;;;;;6246478;23;20039;-86
2022/05/06 06:55:35;;;;;;;9.57;3.80;;;11.60;99.90;;;;;;6219788;23;20079;-86
2022/05/06 06:58:01;;;;;;;7.28;3.90;;;11.50;99.90;;;;;;6247485;23;20095;-86
2022/05/06 07:00:29;;;;;;;6.80;3.80;;;11.50;99.90;;;;;;6218762;23;20008;-86
2022/05/06 07:02:57;;;;;;;7.85;3.58;;;11.50;99.90;;;;;;6246260;23;20008;-86
2022/05/06 07:05:23;;;;;;;7.25;3.47;;;11.50;99.90;;;;;;6244026;23;20411;-86
2022/05/06 07:13:17;;;;;;;7.38;3.63;;;11.50;99.90;;;;;;6243158;23;20015;-87
2022/05/06 07:15:44;;;;;;;8.93;3.47;;;11.50;99.90;;;;;;6216309;23;20004;-87
2022/05/06 07:18:10;;;;;;;10.05;3.63;;;11.60;99.90;;;;;;6243847;23;20061;-87
2022/05/06 07:20:35;;;;;;;7.85;3.60;;;11.50;99.90;;;;;;6242965;23;20079;-87
2022/05/06 07:23:01;;;;;;;6.22;3.28;;;11.60;99.90;;;;;;6243538;23;20031;-88
2022/05/06 07:25:27;;;;;;;7.07;3.05;;;11.70;99.90;;;;;;6243591;23;20338;-86
2022/05/06 07:27:52;;;;;;;9.23;3.55;;;11.50;99.90;;;;;;6213750;23;20004;-86
2022/05/06 07:30:18;;;;;;;8.63;3.35;;;11.60;99.90;;;;;;6215926;23;20059;-86
2022/05/06 07:32:43;;;;;;;6.25;3.17;;;11.60;99.90;;;;;;6217208;23;20046;-87
2022/05/06 07:35:09;;;;;;;6.65;3.15;;;11.60;99.90;;;;;;6217056;23;20000;-87
2022/05/06 07:37:35;;;;;;;7.72;3.60;;;11.60;99.90;;;;;;6215646;23;20123;-87
2022/05/06 07:40:02;;;;;;;6.65;3.33;;;11.60;99.90;;;;;;6217071;23;20008;-87
2022/05/06 07:42:31;;;;;;;9.30;3.53;;;11.60;99.90;;;;;;6245090;23;20450;-87
2022/05/06 07:44:58;;;;;;;7.35;3.33;;;11.60;99.90;;;;;;6217538;23;20090;-87
2022/05/06 07:47:24;;;;;;;6.50;3.00;;;11.60;99.90;;;;;;6244162;23;20012;-87
2022/05/06 07:49:49;;;;;;;6.45;3.30;;;11.60;99.90;;;;;;6218368;23;20102;-87
2022/05/06 07:52:15;;;;;;;6.22;2.88;;;11.70;99.90;;;;;;6218178;23;20030;-87
2022/05/06 07:54:41;;;;;;;5.65;2.92;;;11.60;99.90;;;;;;6245156;23;19996;-87
2022/05/06 07:57:06;;;;;;;6.10;3.33;;;11.60;99.90;;;;;;6243818;23;20004;-87
2022/05/06 07:59:32;;;;;;;7.65;3.75;;;11.60;99.90;;;;;;6223380;23;19988;-86
2022/05/06 08:04:47;;;;;;;5.18;2.85;;;11.70;99.90;;;;;;6244651;23;20039;-88
2022/05/06 08:07:13;;;;;;;5.57;2.72;;;11.80;99.90;;;;;;6218391;23;19996;-88
2022/05/06 08:09:38;;;;;;;6.53;2.97;;;11.70;99.90;;;;;;6253792;23;19992;-88
2022/05/06 08:12:04;;;;;;;7.05;2.83;;;11.80;99.90;;;;;;6222055;23;20035;-87
2022/05/06 08:14:30;;;;;;;5.25;2.72;;;11.80;99.90;;;;;;6218482;23;20076;-87
2022/05/06 08:16:56;;;;;;;5.93;2.67;;;11.90;99.90;;;;;;6250492;23;19984;-87
2022/05/06 08:19:21;;;;;;;7.57;3.05;;;11.90;99.90;;;;;;6239447;23;20000;-87
2022/05/06 08:21:47;;;;;;;5.97;3.25;;;11.90;99.90;;;;;;6260394;23;20004;-87
2022/05/06 08:24:12;;;;;;;5.22;3.03;;;12.00;99.90;;;;;;6243934;23;20004;-88
2022/05/06 08:26:38;;;;;;;6.45;3.03;;;12.00;99.90;;;;;;6216117;23;20446;-87
2022/05/06 08:29:04;;;;;;;6.32;3.13;;;12.20;99.90;;;;;;6211605;23;20008;-87
2022/05/06 08:31:32;;;;;;;5.97;2.63;;;12.10;99.90;;;;;;6243453;23;20012;-87
2022/05/06 08:33:58;;;;;;;6.30;2.63;;;12.20;99.90;;;;;;6245267;23;20130;-88
2022/05/06 08:36:24;;;;;;;7.07;2.63;;;12.30;99.90;;;;;;6215471;23;20026;-86
2022/05/06 09:08:22;;;;;;;6.03;2.45;;;12.90;99.90;;;;;;6184668;22;20423;-85
2022/05/06 09:31:25;;;;;;;4.20;2.00;;;13.10;99.90;;;;;;6214825;23;20055;-86
2022/05/06 09:42:20;;;;;;;;;;;;;;;;;;;;;
2022/05/06 09:49:00;;;;;;;;;;;;;;;;;;;;;
2022/05/06 10:06:53;;;;;;;4.53;2.22;;;14.10;99.90;;;;;;5959605;24;20013;-87
2022/05/06 10:40:57;;;;;;;3.88;1.85;;;16.80;99.90;;;;;;6193611;23;20085;-90
2022/05/06 11:01:46;;;;;;;;;;;;;;;;;;;;;
2022/05/06 11:04:54;;;;;;;4.07;1.73;;;18.50;99.90;;;;;;6010803;23;20035;-87
2022/05/06 11:08:29;;;;;;;;;;;;;;;;;;;;;
2022/05/06 11:12:04;;;;;;;;;;;;;;;;;;;;;
2022/05/06 11:19:26;;;;;;;6.25;2.25;;;18.60;99.90;;;;;;6011261;23;20063;-87
2022/05/06 14:02:56;;;;;;;;;;;;;;;;;;;;;
2022/05/06 14:19:52;;;;;;;;;;;;;;;;;;;;;
2022/05/06 14:33:51;;;;;;;3.80;1.60;;;18.30;97.80;;;;;;6122984;23;20021;-87
2022/05/06 14:40:06;;;;;;;4.28;2.00;;;18.40;97.80;;;;;;6135343;22;22052;-84
2022/05/06 14:42:32;;;;;;;3.67;1.83;;;18.40;98.40;;;;;;6183232;23;20009;-84
2022/05/06 14:44:59;;;;;;;4.00;1.75;;;18.30;98.80;;;;;;6183906;23;20001;-84
2022/05/06 14:47:25;;;;;;;4.63;1.65;;;18.20;98.60;;;;;;6182631;23;20020;-84
2022/05/06 14:49:51;;;;;;;4.53;1.50;;;18.40;98.80;;;;;;6185055;23;20096;-83
2022/05/06 14:52:19;;;;;;;5.28;1.70;;;18.50;98.70;;;;;;6209821;23;19997;-84
2022/05/06 14:54:45;;;;;;;4.65;1.48;;;18.50;98.80;;;;;;6182854;23;20037;-83
2022/05/06 14:57:11;;;;;;;3.35;1.70;;;18.60;98.70;;;;;;6183767;23;20478;-84
2022/05/06 14:59:37;;;;;;;4.13;1.90;;;18.50;98.50;;;;;;6181675;23;20092;-83
2022/05/06 15:02:02;;;;;;;3.28;1.52;;;18.50;98.40;;;;;;6182958;23;20079;-83
2022/05/06 15:04:28;;;;;;;5.07;2.22;;;18.30;98.50;;;;;;6182163;23;20060;-83
2022/05/06 15:06:53;;;;;;;3.05;1.35;;;18.40;98.20;;;;;;6181544;23;20009;-83
2022/05/06 15:09:22;;;;;;;4.97;1.83;;;18.40;98.10;;;;;;6205773;23;20009;-84
2022/05/06 15:11:48;;;;;;;3.20;1.48;;;18.40;98.60;;;;;;6180879;23;20009;-83
2022/05/06 15:14:14;;;;;;;6.93;1.60;;;18.30;97.90;;;;;;6180911;23;20428;-83
2022/05/06 15:16:39;;;;;;;5.18;1.73;;;18.30;98.70;;;;;;6182257;23;20068;-83
2022/05/06 15:21:49;;;;;;;4.68;1.95;;;18.30;98.40;;;;;;6179638;23;20089;-84
2022/05/06 15:24:15;;;;;;;3.15;1.65;;;18.10;98.90;;;;;;6182368;23;20008;-84
2022/05/06 15:26:41;;;;;;;4.28;1.50;;;18.20;99.00;;;;;;6180297;23;20005;-84
2022/05/06 15:29:06;;;;;;;3.72;1.92;;;18.20;98.80;;;;;;6180943;23;20005;-84
2022/05/06 15:31:32;;;;;;;3.63;1.80;;;18.20;98.90;;;;;;6181170;23;20009;-85
2022/05/06 15:33:57;;;;;;;4.15;1.92;;;18.00;98.90;;;;;;6182546;23;20020;-84
2022/05/06 15:36:23;;;;;;;3.13;1.77;;;18.00;99.50;;;;;;6179095;23;20001;-85
2022/05/06 15:38:49;;;;;;;3.72;1.95;;;17.90;99.70;;;;;;6183776;23;20514;-85
2022/05/06 15:41:14;;;;;;;5.18;1.98;;;17.80;99.80;;;;;;6211247;23;20032;-84
2022/05/06 15:43:40;;;;;;;3.35;1.52;;;18.00;99.30;;;;;;6213207;23;20065;-86
2022/05/06 15:46:05;;;;;;;3.20;1.60;;;18.00;99.10;;;;;;6212681;23;20466;-86
2022/05/06 15:48:31;;;;;;;3.00;1.38;;;17.90;99.90;;;;;;6186241;23;20015;-85
2022/05/06 15:50:57;;;;;;;2.92;1.85;;;17.80;99.90;;;;;;6184810;23;20431;-87
2022/05/06 15:53:23;;;;;;;3.28;1.48;;;17.70;99.90;;;;;;6182743;23;20452;-86
2022/05/06 15:55:48;;;;;;;5.00;1.63;;;17.70;99.40;;;;;;6186029;23;20032;-85
2022/05/06 15:58:15;;;;;;;3.10;1.52;;;17.60;99.90;;;;;;6211903;23;20051;-85
2022/05/06 16:00:42;;;;;;;3.45;1.50;;;17.60;99.90;;;;;;6184747;23;20411;-86
2022/05/06 16:03:08;;;;;;;3.25;1.90;;;17.50;99.90;;;;;;6185425;23;20320;-85
2022/05/06 16:05:34;;;;;;;3.75;1.58;;;17.60;99.90;;;;;;6212483;23;20004;-85
2022/05/06 16:07:59;;;;;;;5.55;2.10;;;17.40;99.90;;;;;;6211183;23;20062;-85
2022/05/06 16:10:27;;;;;;;3.85;1.52;;;17.50;99.90;;;;;;6211734;23;20372;-85
2022/05/06 16:12:53;;;;;;;2.38;1.25;;;17.50;99.90;;;;;;6185234;23;20063;-87
2022/05/06 16:15:18;;;;;;;4.22;1.40;;;17.50;99.90;;;;;;6211325;23;19997;-86
2022/05/06 16:17:45;;;;;;;3.53;1.60;;;17.50;99.90;;;;;;6184336;23;20414;-86
2022/05/06 16:20:11;;;;;;;3.53;1.67;;;17.50;99.90;;;;;;6211849;23;20072;-86
2022/05/06 16:22:36;;;;;;;2.97;1.60;;;17.40;99.90;;;;;;6183404;23;20048;-86
2022/05/06 16:25:04;;;;;;;4.03;1.65;;;17.40;99.90;;;;;;6183077;23;20008;-86
2022/05/06 16:27:30;;;;;;;3.17;1.58;;;17.30;99.90;;;;;;6210582;23;20450;-86
2022/05/06 16:29:56;;;;;;;2.75;1.52;;;17.30;99.90;;;;;;6186737;23;20024;-86
2022/05/06 16:32:21;;;;;;;3.30;1.40;;;17.30;99.90;;;;;;6191385;23;20004;-87
2022/05/06 16:37:31;;;;;;;3.35;1.70;;;17.30;99.90;;;;;;6212658;23;20083;-86
2022/05/06 16:39:56;;;;;;;2.85;1.60;;;17.20;99.90;;;;;;6186505;23;20004;-86
2022/05/06 16:42:22;;;;;;;4.00;1.60;;;17.20;99.90;;;;;;6184807;23;20004;-87
2022/05/06 16:44:48;;;;;;;2.60;1.30;;;17.20;99.90;;;;;;6211711;23;20027;-86
2022/05/06 16:47:13;;;;;;;4.65;1.60;;;17.20;99.90;;;;;;6186031;23;20519;-86
2022/05/06 16:49:40;;;;;;;3.40;1.60;;;17.10;99.90;;;;;;6189480;23;20004;-86
2022/05/06 16:52:05;;;;;;;5.97;1.80;;;17.00;99.90;;;;;;6215317;23;20005;-86
2022/05/06 16:54:33;;;;;;;3.50;1.80;;;17.00;99.90;;;;;;6186598;23;20798;-85
2022/05/06 16:56:59;;;;;;;3.47;1.80;;;17.00;99.90;;;;;;6186982;23;20011;-86
2022/05/06 16:59:25;;;;;;;4.05;1.55;;;16.90;99.90;;;;;;6185738;23;20001;-86
2022/05/06 17:01:51;;;;;;;3.53;1.23;;;17.00;99.90;;;;;;6213016;23;20005;-86
2022/05/06 17:04:17;;;;;;;2.88;1.40;;;17.00;99.90;;;;;;6184872;23;20386;-88
2022/05/06 17:06:43;;;;;;;3.05;1.30;;;16.90;99.90;;;;;;6185975;23;20040;-87
2022/05/06 17:09:09;;;;;;;4.10;1.50;;;17.00;99.90;;;;;;6186729;23;20087;-87
2022/05/06 17:11:34;;;;;;;2.78;1.35;;;16.90;99.90;;;;;;6187134;23;20450;-87
2022/05/06 17:14:00;;;;;;;3.67;1.73;;;17.00;99.90;;;;;;6188054;23;19993;-87
2022/05/06 17:16:29;;;;;;;4.35;1.50;;;16.90;99.90;;;;;;6187169;23;20070;-86
2022/05/06 17:18:54;;;;;;;2.92;1.50;;;16.90;99.90;;;;;;6188162;23;20316;-87
2022/05/06 17:21:20;;;;;;;3.92;1.38;;;16.80;99.90;;;;;;6188730;23;20007;-86
2022/05/06 17:23:46;;;;;;;2.95;1.58;;;16.90;99.90;;;;;;6188130;23;20008;-87
2022/05/06 17:26:12;;;;;;;3.55;1.40;;;16.90;99.90;;;;;;6187334;23;20320;-87
2022/05/06 17:28:38;;;;;;;3.00;1.60;;;16.80;99.90;;;;;;6215414;23;20066;-86
2022/05/06 17:31:12;;;;;;;2.58;1.30;;;16.80;99.90;;;;;;6187269;23;20004;-87
2022/05/06 17:33:37;;;;;;;3.47;1.60;;;16.70;99.90;;;;;;6213738;23;20004;-87
2022/05/06 17:36:03;;;;;;;4.05;1.75;;;16.60;99.90;;;;;;6185232;23;20001;-88
2022/05/06 17:38:29;;;;;;;3.67;1.67;;;16.60;99.90;;;;;;6185310;23;20478;-87
2022/05/06 17:40:55;;;;;;;3.78;1.52;;;16.60;99.90;;;;;;6211081;23;20007;-87
2022/05/06 17:43:20;;;;;;;4.78;1.65;;;16.60;99.90;;;;;;6185446;23;20004;-87
2022/05/06 17:45:47;;;;;;;5.25;1.50;;;16.70;99.90;;;;;;6184671;23;20026;-87
2022/05/06 17:48:13;;;;;;;4.10;1.60;;;16.60;99.90;;;;;;6210873;23;20031;-86
2022/05/06 17:50:41;;;;;;;3.60;1.10;;;16.60;99.90;;;;;;6186320;23;20009;-87
2022/05/06 17:53:07;;;;;;;3.92;1.42;;;16.50;99.90;;;;;;6208889;23;20091;-86
2022/05/06 17:55:33;;;;;;;3.20;1.40;;;16.50;99.90;;;;;;6212336;23;20043;-86
2022/05/06 17:57:59;;;;;;;3.50;1.33;;;16.60;99.90;;;;;;6184844;23;20001;-86
2022/05/06 18:03:10;;;;;;;3.22;1.50;;;16.40;99.90;;;;;;6212712;23;20027;-86
2022/05/06 18:05:39;;;;;;;3.45;1.48;;;16.40;99.90;;;;;;6185983;23;20004;-87
2022/05/06 18:08:04;;;;;;;3.00;1.45;;;16.40;99.90;;;;;;6186011;23;20008;-86
2022/05/06 18:10:31;;;;;;;4.00;1.70;;;16.40;99.90;;;;;;6213481;23;20016;-87
2022/05/06 18:12:58;;;;;;;3.42;1.60;;;16.40;99.90;;;;;;6185639;23;20008;-86
2022/05/06 18:15:25;;;;;;;3.53;1.55;;;16.30;99.90;;;;;;6187074;23;20288;-86
2022/05/06 18:17:51;;;;;;;4.45;2.53;;;16.30;99.90;;;;;;6212542;23;20335;-85
2022/05/06 18:20:17;;;;;;;2.65;1.50;;;16.30;99.90;;;;;;6212496;23;20011;-86
2022/05/06 18:22:43;;;;;;;2.63;1.25;;;16.20;99.90;;;;;;6186483;23;20095;-86
2022/05/06 18:25:09;;;;;;;6.63;2.08;;;16.20;99.90;;;;;;6212979;23;19997;-86
2022/05/06 18:27:35;;;;;;;4.10;1.60;;;16.10;99.90;;;;;;6212579;23;20008;-86
2022/05/06 18:30:01;;;;;;;2.35;1.20;;;16.10;99.90;;;;;;6211837;23;20017;-86
2022/05/06 18:35:11;;;;;;;4.07;1.48;;;16.00;99.90;;;;;;6213143;23;20390;-86
2022/05/06 18:37:37;;;;;;;3.15;1.40;;;16.00;99.90;;;;;;6185763;23;20000;-86
2022/05/06 18:40:02;;;;;;;4.82;1.50;;;15.90;99.90;;;;;;6186211;23;20001;-86
2022/05/06 18:42:28;;;;;;;3.80;1.50;;;15.80;99.90;;;;;;6185572;23;20013;-85
2022/05/06 18:44:54;;;;;;;3.00;1.13;;;15.80;99.90;;;;;;6185614;23;20062;-86
2022/05/06 18:47:19;;;;;;;4.28;1.33;;;15.70;99.90;;;;;;6185856;23;20001;-86
2022/05/06 18:49:46;;;;;;;3.60;1.60;;;15.70;99.90;;;;;;6211725;23;20400;-86
2022/05/06 18:52:11;;;;;;;3.10;1.30;;;15.60;99.90;;;;;;6213210;23;20004;-85
2022/05/06 18:54:37;;;;;;;3.47;1.40;;;15.60;99.90;;;;;;6186777;23;20011;-84
2022/05/06 18:57:05;;;;;;;3.33;1.70;;;15.50;99.90;;;;;;6184912;23;19997;-84
2022/05/06 18:59:31;;;;;;;2.58;1.20;;;15.40;99.90;;;;;;6185381;23;20008;-84
2022/05/06 19:01:59;;;;;;;2.38;1.20;;;15.40;99.90;;;;;;6185789;23;20048;-89
2022/05/06 19:04:28;;;;;;;4.07;1.27;;;15.30;99.90;;;;;;6186360;23;20063;-88
2022/05/06 19:07:08;;;;;;;2.85;1.15;;;15.30;99.90;;;;;;6187101;23;20099;-87
2022/05/06 19:12:51;;;;;;;3.22;1.40;;;15.20;99.90;;;;;;6176711;23;20013;-88
2022/05/06 19:15:17;;;;;;;2.30;1.15;;;15.10;99.90;;;;;;6212585;23;20019;-87
2022/05/06 19:17:43;;;;;;;2.80;1.20;;;15.00;99.90;;;;;;6212447;23;20024;-88
2022/05/06 19:20:11;;;;;;;4.70;1.67;;;15.00;99.90;;;;;;6211901;23;20007;-87
2022/05/06 19:25:23;;;;;;;3.63;1.50;;;14.90;99.90;;;;;;6212913;23;20480;-90
2022/05/06 19:27:55;;;;;;;3.85;1.77;;;14.80;99.90;;;;;;6184938;23;20004;-87
2022/05/06 19:30:21;;;;;;;3.40;1.55;;;14.70;99.90;;;;;;6185820;23;20000;-89
2022/05/06 19:32:47;;;;;;;3.40;1.40;;;14.70;99.90;;;;;;6187798;23;20062;-90
2022/05/06 19:38:41;;;;;;;3.70;1.80;;;14.60;99.90;;;;;;6218844;23;20007;-90
2022/05/06 19:41:07;;;;;;;3.75;1.75;;;14.50;99.90;;;;;;6195767;23;20028;-88
2022/05/06 19:43:33;;;;;;;4.53;1.60;;;14.40;99.90;;;;;;6205056;23;20020;-89
2022/05/06 19:46:02;;;;;;;2.65;1.58;;;14.40;99.90;;;;;;6205149;23;20008;-90
2022/05/06 19:48:28;;;;;;;3.10;1.50;;;14.40;99.90;;;;;;6206025;23;20136;-90
2022/05/06 19:50:55;;;;;;;4.28;1.55;;;14.30;99.90;;;;;;6205883;23;20009;-90
2022/05/06 19:53:21;;;;;;;3.00;1.70;;;14.30;99.90;;;;;;6187317;23;20023;-89
2022/05/06 19:55:46;;;;;;;5.72;1.50;;;14.20;99.90;;;;;;6186953;23;20001;-89
2022/05/06 19:58:12;;;;;;;3.70;1.77;;;14.10;99.90;;;;;;6187171;23;20003;-92
2022/05/06 20:00:38;;;;;;;4.55;1.55;;;14.00;99.90;;;;;;6190944;23;20015;-92
2022/05/06 20:03:05;;;;;;;4.45;1.77;;;14.00;99.90;;;;;;6191369;23;20008;-92
2022/05/06 20:05:32;;;;;;;3.25;1.63;;;14.00;99.90;;;;;;6189255;23;20009;-90
2022/05/06 20:08:02;;;;;;;3.92;1.85;;;14.00;99.90;;;;;;6187916;23;20012;-91
2022/05/06 20:10:27;;;;;;;4.88;1.85;;;14.00;99.90;;;;;;6186746;23;20009;-90
2022/05/06 20:12:54;;;;;;;3.25;1.63;;;13.80;99.90;;;;;;6186352;23;20092;-90
2022/05/06 20:15:20;;;;;;;3.50;1.60;;;13.80;99.90;;;;;;6183150;23;20011;-90
2022/05/06 20:17:46;;;;;;;3.60;1.65;;;13.70;99.90;;;;;;6181989;23;20063;-88
2022/05/06 20:20:14;;;;;;;4.32;1.63;;;13.70;99.90;;;;;;6187041;23;20000;-91
2022/05/06 20:22:40;;;;;;;4.15;1.75;;;13.70;99.90;;;;;;6187121;23;20019;-90
2022/05/06 20:25:06;;;;;;;4.38;1.70;;;13.70;99.90;;;;;;6186092;23;20009;-91
2022/05/06 20:27:33;;;;;;;4.50;1.50;;;13.70;99.90;;;;;;6185592;23;20410;-91
2022/05/06 20:29:59;;;;;;;5.13;1.63;;;13.70;99.90;;;;;;6185810;23;20024;-90
2022/05/06 20:32:29;;;;;;;4.47;1.83;;;13.70;99.90;;;;;;6211187;23;20000;-90